Time;durP1;ratioP1;P1;durP2;ratioP2;P2;SDS_P1;SDS_P2;PMS_P1;PMS_P2;Temp;Humidity;BMP_temperature;BMP_pressure;BME280_temperature;BME280_humidity;BME280_pressure;Samples;Min_cycle;Max_cycle;Signal;HPM_P1;HPM_P2
2021/01/14 00:00:08;;;;;;;0.77;0.52;;;14.50;66.70;;;;;;5004554;28;20159;-76
2021/01/14 00:02:38;;;;;;;2.00;0.65;;;14.50;66.70;;;;;;5025082;28;20076;-75
2021/01/14 00:05:06;;;;;;;1.60;0.70;;;14.50;66.70;;;;;;5012151;28;20437;-76
2021/01/14 00:07:32;;;;;;;0.77;0.60;;;14.50;66.70;;;;;;5010394;28;20147;-76
2021/01/14 00:10:02;;;;;;;1.80;0.98;;;14.50;66.70;;;;;;5007227;28;20378;-76
2021/01/14 00:12:28;;;;;;;0.65;0.63;;;14.50;66.70;;;;;;5016957;28;20049;-76
2021/01/14 00:14:54;;;;;;;1.15;0.60;;;14.50;66.70;;;;;;5026486;28;20025;-76
2021/01/14 00:17:19;;;;;;;1.55;0.63;;;14.50;66.70;;;;;;5022610;28;20038;-75
2021/01/14 00:19:47;;;;;;;1.50;0.70;;;14.50;66.70;;;;;;5010116;28;20030;-76
2021/01/14 00:22:18;;;;;;;1.20;0.63;;;14.50;66.70;;;;;;5008095;28;20025;-76
2021/01/14 00:24:43;;;;;;;1.13;0.90;;;14.50;66.70;;;;;;5010767;28;20120;-76
2021/01/14 00:27:13;;;;;;;0.65;0.55;;;14.50;66.70;;;;;;5009155;28;20320;-75
2021/01/14 00:29:39;;;;;;;1.45;0.60;;;14.50;66.70;;;;;;5011611;28;20030;-76
2021/01/14 00:32:05;;;;;;;0.73;0.50;;;14.50;66.70;;;;;;5011465;28;20028;-76
2021/01/14 00:34:44;;;;;;;1.55;0.65;;;14.50;66.70;;;;;;5017993;28;20029;-72
2021/01/14 00:39:59;;;;;;;0.57;0.50;;;14.50;66.70;;;;;;5028431;28;20032;-74
2021/01/14 00:42:29;;;;;;;0.75;0.60;;;14.50;66.70;;;;;;5009911;28;20017;-75
2021/01/14 00:45:00;;;;;;;1.20;0.60;;;14.50;66.70;;;;;;5023475;28;20044;-74
2021/01/14 00:47:26;;;;;;;0.82;0.68;;;14.50;66.70;;;;;;5026995;28;20091;-74
2021/01/14 00:49:57;;;;;;;0.73;0.55;;;14.50;66.70;;;;;;4993322;28;20295;-74
2021/01/14 00:52:36;;;;;;;1.75;0.77;;;14.50;66.70;;;;;;5012035;28;20455;-74
2021/01/14 00:55:15;;;;;;;0.63;0.52;;;14.50;66.70;;;;;;5026226;28;20035;-74
2021/01/14 00:57:41;;;;;;;1.10;0.70;;;14.40;66.70;;;;;;5006355;28;20053;-74
2021/01/14 01:00:13;;;;;;;2.05;0.50;;;14.50;66.70;;;;;;5021951;28;20447;-74
2021/01/14 01:02:53;;;;;;;1.30;0.90;;;14.50;66.70;;;;;;5008839;28;20735;-74
2021/01/14 01:05:23;;;;;;;0.65;0.57;;;14.50;66.70;;;;;;5008176;28;20048;-74
2021/01/14 01:08:02;;;;;;;0.60;0.60;;;14.50;66.70;;;;;;5007183;28;20031;-74
2021/01/14 01:10:33;;;;;;;1.30;0.77;;;14.50;66.70;;;;;;5011241;28;20025;-74
2021/01/14 01:13:02;;;;;;;1.45;0.60;;;14.50;66.70;;;;;;5023022;28;20477;-74
2021/01/14 01:15:32;;;;;;;1.75;0.50;;;14.40;66.70;;;;;;5012225;28;20458;-74
2021/01/14 01:17:58;;;;;;;1.63;0.65;;;14.50;66.70;;;;;;5027963;28;20029;-75
2021/01/14 01:20:27;;;;;;;0.50;0.50;;;14.50;66.70;;;;;;5009112;28;20422;-74
2021/01/14 01:22:58;;;;;;;0.70;0.52;;;14.40;66.60;;;;;;5022026;28;20025;-74
2021/01/14 01:25:28;;;;;;;0.95;0.60;;;14.40;66.70;;;;;;5024300;28;20029;-74
2021/01/14 01:27:58;;;;;;;1.05;0.63;;;14.40;66.70;;;;;;5023329;28;20032;-75
2021/01/14 01:30:28;;;;;;;0.80;0.65;;;14.40;66.70;;;;;;5018683;28;20021;-75
2021/01/14 01:32:59;;;;;;;3.90;0.80;;;14.40;66.70;;;;;;5020354;28;20048;-74
2021/01/14 01:35:29;;;;;;;0.40;0.40;;;14.40;66.70;;;;;;5010084;28;20033;-74
2021/01/14 01:37:57;;;;;;;0.88;0.52;;;14.40;66.70;;;;;;5027005;28;20017;-74
2021/01/14 01:40:24;;;;;;;0.73;0.50;;;14.40;66.70;;;;;;5010976;28;20029;-74
2021/01/14 01:42:56;;;;;;;1.20;0.45;;;14.40;66.70;;;;;;5008552;28;20379;-74
2021/01/14 01:45:22;;;;;;;0.60;0.40;;;14.40;66.70;;;;;;5007690;28;20037;-75
2021/01/14 01:47:52;;;;;;;0.80;0.50;;;14.40;66.70;;;;;;5010789;28;20041;-74
2021/01/14 01:50:26;;;;;;;0.65;0.60;;;14.40;66.70;;;;;;5009922;28;20241;-75
2021/01/14 01:52:58;;;;;;;1.65;0.75;;;14.40;66.70;;;;;;5019181;28;20030;-74
2021/01/14 01:55:28;;;;;;;0.63;0.50;;;14.40;66.70;;;;;;5003246;28;20362;-74
2021/01/14 01:58:06;;;;;;;0.57;0.40;;;14.40;66.70;;;;;;5022601;28;20060;-74
2021/01/14 02:00:36;;;;;;;1.33;0.55;;;14.40;66.70;;;;;;5006339;28;20029;-75
2021/01/14 02:03:07;;;;;;;1.30;0.68;;;14.40;66.70;;;;;;5008675;28;20463;-75
2021/01/14 02:05:33;;;;;;;1.38;0.70;;;14.40;66.70;;;;;;5026248;28;20033;-75
2021/01/14 02:08:18;;;;;;;1.30;0.50;;;14.40;66.70;;;;;;5023038;28;20091;-74
2021/01/14 02:11:09;;;;;;;0.50;0.50;;;14.40;66.70;;;;;;5022757;28;20088;-74
2021/01/14 02:13:55;;;;;;;0.75;0.50;;;14.40;66.70;;;;;;5019266;28;20025;-74
2021/01/14 02:16:22;;;;;;;1.30;1.17;;;14.40;66.70;;;;;;5005805;28;20144;-74
2021/01/14 02:18:52;;;;;;;0.95;0.35;;;14.40;66.70;;;;;;5009806;28;20112;-75
2021/01/14 02:21:44;;;;;;;0.40;0.40;;;14.30;66.70;;;;;;5021089;28;20073;-74
2021/01/14 02:24:24;;;;;;;2.08;0.40;;;14.40;66.70;;;;;;5004711;28;20025;-75
2021/01/14 02:26:51;;;;;;;0.50;0.50;;;14.40;66.70;;;;;;5007151;28;20029;-75
2021/01/14 02:29:18;;;;;;;0.57;0.38;;;14.40;66.80;;;;;;5007260;28;20349;-74
2021/01/14 02:31:48;;;;;;;0.60;0.50;;;14.40;66.70;;;;;;5011860;28;20036;-74
2021/01/14 02:34:26;;;;;;;0.82;0.60;;;14.40;66.70;;;;;;5025611;28;20030;-74
2021/01/14 02:37:05;;;;;;;1.67;0.60;;;14.40;66.70;;;;;;5025712;28;20037;-75
2021/01/14 02:39:36;;;;;;;0.60;0.45;;;14.30;66.70;;;;;;5009958;28;20021;-75
2021/01/14 02:42:05;;;;;;;0.73;0.50;;;14.40;66.70;;;;;;5028266;28;20025;-74
2021/01/14 02:44:36;;;;;;;0.93;0.73;;;14.40;66.70;;;;;;5008677;28;20037;-74
2021/01/14 02:47:25;;;;;;;1.42;0.70;;;14.40;66.80;;;;;;5008971;28;20041;-74
2021/01/14 02:49:58;;;;;;;0.70;0.50;;;14.40;66.70;;;;;;5027061;28;20041;-74
2021/01/14 02:52:27;;;;;;;0.68;0.57;;;14.40;66.70;;;;;;5006817;28;20029;-75
2021/01/14 02:54:59;;;;;;;0.57;0.57;;;14.30;66.70;;;;;;5009059;28;20033;-73
2021/01/14 02:57:29;;;;;;;1.67;0.70;;;14.30;66.80;;;;;;5010251;28;20125;-75
2021/01/14 03:00:00;;;;;;;0.55;0.52;;;14.30;66.70;;;;;;5020052;28;20835;-74
2021/01/14 03:02:27;;;;;;;0.57;0.50;;;14.40;66.70;;;;;;5026991;28;20029;-73
2021/01/14 03:04:53;;;;;;;0.68;0.50;;;14.40;66.70;;;;;;5005925;28;20026;-74
2021/01/14 03:07:18;;;;;;;0.73;0.70;;;14.30;66.70;;;;;;5017831;28;20017;-74
2021/01/14 03:09:56;;;;;;;0.73;0.57;;;14.30;66.70;;;;;;5025852;28;20086;-75
2021/01/14 03:12:26;;;;;;;0.45;0.43;;;14.30;66.70;;;;;;4998384;28;20026;-74
2021/01/14 03:14:52;;;;;;;0.85;0.50;;;14.30;66.70;;;;;;5002216;28;20030;-74
2021/01/14 03:17:22;;;;;;;0.47;0.40;;;14.30;66.70;;;;;;5021140;28;20022;-74
2021/01/14 03:19:56;;;;;;;0.80;0.60;;;14.40;66.80;;;;;;5023669;28;20026;-74
2021/01/14 03:22:22;;;;;;;0.70;0.50;;;14.30;66.70;;;;;;5004035;28;20102;-74
2021/01/14 03:24:53;;;;;;;0.50;0.50;;;14.30;66.70;;;;;;5032466;28;20061;-74
2021/01/14 03:27:23;;;;;;;0.40;0.40;;;14.40;66.70;;;;;;5024090;28;20041;-74
2021/01/14 03:29:48;;;;;;;1.25;0.60;;;14.30;66.70;;;;;;5006775;28;20055;-74
2021/01/14 03:32:19;;;;;;;0.75;0.60;;;14.40;66.70;;;;;;5026827;28;20447;-74
2021/01/14 03:35:08;;;;;;;3.35;0.60;;;14.30;66.70;;;;;;5031838;28;20035;-74
2021/01/14 03:37:38;;;;;;;1.35;0.80;;;14.30;66.70;;;;;;5028824;28;20092;-74
2021/01/14 03:40:18;;;;;;;0.95;0.50;;;14.40;66.70;;;;;;5027271;28;20021;-74
2021/01/14 03:42:48;;;;;;;0.95;0.63;;;14.30;66.70;;;;;;5008810;28;20117;-74
2021/01/14 03:45:19;;;;;;;0.45;0.22;;;14.40;66.70;;;;;;5029211;28;20120;-74
2021/01/14 03:47:49;;;;;;;0.70;0.50;;;14.40;66.70;;;;;;5009809;28;20042;-74
2021/01/14 03:50:15;;;;;;;0.85;0.50;;;14.30;66.70;;;;;;5028074;28;20021;-73
2021/01/14 03:52:40;;;;;;;1.85;0.70;;;14.30;66.70;;;;;;5013227;28;20021;-74
2021/01/14 03:55:06;;;;;;;0.95;0.20;;;14.30;66.70;;;;;;5030538;28;20112;-73
2021/01/14 03:57:36;;;;;;;0.45;0.45;;;14.30;66.70;;;;;;5013572;28;20149;-75
2021/01/14 04:00:14;;;;;;;0.93;0.60;;;14.30;66.70;;;;;;5024272;28;20095;-75
2021/01/14 04:02:40;;;;;;;0.68;0.40;;;14.30;66.70;;;;;;5011795;28;20079;-74
2021/01/14 04:05:08;;;;;;;0.73;0.45;;;14.30;66.70;;;;;;5029198;28;20456;-74
2021/01/14 04:07:39;;;;;;;0.50;0.38;;;14.30;66.70;;;;;;5021933;28;20667;-74
2021/01/14 04:10:05;;;;;;;0.63;0.50;;;14.30;66.70;;;;;;5008840;28;20049;-74
2021/01/14 04:12:31;;;;;;;0.30;0.30;;;14.30;66.70;;;;;;5021072;28;20455;-75
2021/01/14 04:15:02;;;;;;;0.57;0.50;;;14.30;66.70;;;;;;5012535;28;20034;-74
2021/01/14 04:17:33;;;;;;;0.47;0.40;;;14.30;66.70;;;;;;5011259;28;20473;-74
2021/01/14 04:20:03;;;;;;;0.45;0.38;;;14.30;66.70;;;;;;5021451;28;20098;-74
2021/01/14 04:22:34;;;;;;;0.47;0.40;;;14.30;66.70;;;;;;5013946;28;20068;-75
2021/01/14 04:25:04;;;;;;;0.85;0.60;;;14.30;66.70;;;;;;5028066;28;20483;-74
2021/01/14 04:27:34;;;;;;;0.32;0.32;;;14.30;66.70;;;;;;5007434;28;20067;-75
2021/01/14 04:30:00;;;;;;;0.80;0.47;;;14.30;66.70;;;;;;5024530;28;20057;-74
2021/01/14 04:32:31;;;;;;;0.88;0.50;;;14.30;66.70;;;;;;5026408;28;20024;-74
2021/01/14 04:35:02;;;;;;;2.20;0.63;;;14.30;66.70;;;;;;5024119;28;20037;-73
2021/01/14 04:37:32;;;;;;;3.83;0.73;;;14.30;66.70;;;;;;5011296;28;20057;-73
2021/01/14 04:40:02;;;;;;;0.30;0.30;;;14.30;66.70;;;;;;5029066;28;20037;-74
2021/01/14 04:42:33;;;;;;;0.47;0.40;;;14.30;66.70;;;;;;5022513;28;20033;-74
2021/01/14 04:44:59;;;;;;;0.50;0.32;;;14.30;66.70;;;;;;5020266;28;20033;-74
2021/01/14 04:47:29;;;;;;;0.45;0.45;;;14.30;66.70;;;;;;5009825;28;20076;-74
2021/01/14 04:50:11;;;;;;;0.65;0.50;;;14.30;66.70;;;;;;5023879;28;20025;-74
2021/01/14 04:52:46;;;;;;;1.10;0.70;;;14.30;66.70;;;;;;5009902;28;20574;-73
2021/01/14 04:55:16;;;;;;;0.40;0.40;;;14.30;66.70;;;;;;5027916;28;20030;-74
2021/01/14 04:57:49;;;;;;;0.50;0.50;;;14.30;66.70;;;;;;5025447;28;20025;-74
2021/01/14 05:00:20;;;;;;;0.57;0.40;;;14.30;66.70;;;;;;5004705;28;20022;-73
2021/01/14 05:03:06;;;;;;;0.55;0.50;;;14.30;66.70;;;;;;5026885;28;20014;-76
2021/01/14 05:05:45;;;;;;;0.70;0.50;;;14.30;66.70;;;;;;5005728;28;20030;-78
2021/01/14 05:08:16;;;;;;;1.75;0.55;;;14.30;66.70;;;;;;5008939;28;20025;-75
2021/01/14 05:10:46;;;;;;;1.27;0.70;;;14.30;66.70;;;;;;5008044;28;20164;-75
2021/01/14 05:13:16;;;;;;;0.50;0.50;;;14.30;66.80;;;;;;5026766;28;20528;-76
2021/01/14 05:15:46;;;;;;;0.50;0.50;;;14.30;66.80;;;;;;5003936;28;20025;-77
2021/01/14 05:18:22;;;;;;;1.13;0.50;;;14.30;66.70;;;;;;5024564;28;20466;-73
2021/01/14 05:20:51;;;;;;;0.68;0.50;;;14.30;66.70;;;;;;5027383;28;20455;-73
2021/01/14 05:23:22;;;;;;;0.70;0.40;;;14.30;66.70;;;;;;5025787;28;20042;-74
2021/01/14 05:25:53;;;;;;;0.60;0.45;;;14.30;66.70;;;;;;5007254;28;20486;-73
2021/01/14 05:28:25;;;;;;;0.52;0.45;;;14.30;66.70;;;;;;5011333;28;20034;-73
2021/01/14 05:30:55;;;;;;;0.80;0.50;;;14.30;66.70;;;;;;5009834;28;20032;-75
2021/01/14 05:33:29;;;;;;;1.17;0.60;;;14.30;66.70;;;;;;5024758;28;20494;-73
2021/01/14 05:36:03;;;;;;;1.40;0.50;;;14.30;66.70;;;;;;5024936;28;20119;-75
2021/01/14 05:38:43;;;;;;;0.55;0.50;;;14.30;66.70;;;;;;5004023;28;20037;-74
2021/01/14 05:41:19;;;;;;;0.45;0.45;;;14.30;66.70;;;;;;5001861;28;20029;-73
2021/01/14 05:44:07;;;;;;;0.85;0.60;;;14.30;66.70;;;;;;5010394;28;20334;-74
2021/01/14 05:46:33;;;;;;;0.50;0.50;;;14.30;66.70;;;;;;5008622;28;20414;-73
2021/01/14 05:49:04;;;;;;;0.45;0.43;;;14.30;66.70;;;;;;5025170;28;20116;-73
2021/01/14 05:51:38;;;;;;;0.50;0.47;;;14.30;66.70;;;;;;5005616;28;20116;-73
2021/01/14 05:54:08;;;;;;;1.40;0.45;;;14.30;66.70;;;;;;5026755;28;20029;-73
2021/01/14 05:57:11;;;;;;;0.65;0.60;;;14.30;66.70;;;;;;5027678;28;20068;-73
2021/01/14 05:59:40;;;;;;;0.47;0.38;;;14.30;66.70;;;;;;5022005;28;20025;-74
2021/01/14 06:02:09;;;;;;;0.43;0.40;;;14.30;66.70;;;;;;5025860;28;20485;-73
2021/01/14 06:04:34;;;;;;;0.40;0.40;;;14.30;66.70;;;;;;5024626;28;20021;-73
2021/01/14 06:07:04;;;;;;;2.17;0.73;;;14.30;66.70;;;;;;5027850;28;20060;-74
2021/01/14 06:09:39;;;;;;;1.00;0.50;;;14.30;66.70;;;;;;5022849;28;20065;-73
2021/01/14 06:12:10;;;;;;;0.90;0.45;;;14.30;66.70;;;;;;5016369;28;20028;-73
2021/01/14 06:14:36;;;;;;;0.50;0.47;;;14.30;66.70;;;;;;5021892;28;20402;-73
2021/01/14 06:17:09;;;;;;;0.50;0.50;;;14.30;66.70;;;;;;5027070;28;20054;-75
2021/01/14 06:19:36;;;;;;;0.65;0.60;;;14.30;66.70;;;;;;5024048;28;20426;-74
2021/01/14 06:22:03;;;;;;;0.45;0.40;;;14.30;66.70;;;;;;5000810;28;20736;-73
2021/01/14 06:24:38;;;;;;;0.40;0.40;;;14.30;66.70;;;;;;5010044;28;20356;-73
2021/01/14 06:27:06;;;;;;;0.38;0.32;;;14.30;66.70;;;;;;5006321;28;20041;-74
2021/01/14 06:29:42;;;;;;;0.30;0.30;;;14.30;66.70;;;;;;5018138;28;20053;-73
2021/01/14 06:32:19;;;;;;;0.55;0.43;;;14.30;66.70;;;;;;5001894;28;20025;-75
2021/01/14 06:34:52;;;;;;;0.85;0.60;;;14.30;66.70;;;;;;5022154;28;20194;-74
2021/01/14 06:37:20;;;;;;;0.55;0.50;;;14.30;66.70;;;;;;5009874;28;20105;-74
2021/01/14 06:39:48;;;;;;;0.47;0.47;;;14.30;66.70;;;;;;5025834;28;20026;-74
2021/01/14 06:42:28;;;;;;;0.95;0.80;;;14.30;66.70;;;;;;5025353;28;20105;-75
2021/01/14 06:44:58;;;;;;;1.13;0.70;;;14.30;66.70;;;;;;5022106;28;20336;-75
2021/01/14 06:47:32;;;;;;;1.33;0.50;;;14.30;66.70;;;;;;5009974;28;20070;-74
2021/01/14 06:50:17;;;;;;;0.57;0.30;;;14.30;66.70;;;;;;5006414;28;20439;-74
2021/01/14 06:53:09;;;;;;;0.38;0.38;;;14.30;66.70;;;;;;5024832;28;20362;-74
2021/01/14 06:55:36;;;;;;;0.60;0.50;;;14.30;66.70;;;;;;5002299;28;20025;-74
2021/01/14 06:58:13;;;;;;;0.50;0.43;;;14.30;66.70;;;;;;5006618;28;20029;-74
2021/01/14 07:00:45;;;;;;;0.40;0.40;;;14.20;66.70;;;;;;5008186;28;20304;-75
2021/01/14 07:03:19;;;;;;;0.60;0.40;;;14.30;66.70;;;;;;5014463;28;20017;-75
2021/01/14 07:06:13;;;;;;;1.05;0.45;;;14.30;66.70;;;;;;5027813;28;20069;-74
2021/01/14 07:09:02;;;;;;;0.95;0.77;;;14.30;66.70;;;;;;5010638;28;20021;-74
2021/01/14 07:11:33;;;;;;;0.60;0.40;;;14.30;66.70;;;;;;5013754;28;20410;-74
2021/01/14 07:14:20;;;;;;;0.70;0.38;;;14.30;66.70;;;;;;5024465;28;20029;-74
2021/01/14 07:17:06;;;;;;;0.55;0.50;;;14.30;66.70;;;;;;5008408;28;20033;-74
2021/01/14 07:19:36;;;;;;;0.50;0.40;;;14.30;66.70;;;;;;5006914;28;20029;-74
2021/01/14 07:22:03;;;;;;;0.40;0.40;;;14.30;66.70;;;;;;5001215;28;20025;-74
2021/01/14 07:24:38;;;;;;;0.40;0.40;;;14.30;66.70;;;;;;5010099;28;20526;-74
2021/01/14 07:27:08;;;;;;;0.65;0.50;;;14.30;66.70;;;;;;5029996;28;20132;-74
2021/01/14 07:29:59;;;;;;;1.75;0.40;;;14.30;66.70;;;;;;5003506;28;20493;-74
2021/01/14 07:32:56;;;;;;;0.70;0.50;;;14.30;66.70;;;;;;5010911;28;20074;-74
2021/01/14 07:35:49;;;;;;;0.52;0.38;;;14.20;66.70;;;;;;5005527;28;20048;-74
2021/01/14 07:38:16;;;;;;;0.40;0.32;;;14.30;66.70;;;;;;5007112;28;20022;-74
2021/01/14 07:40:44;;;;;;;0.50;0.50;;;14.30;66.70;;;;;;5028401;28;20030;-74
2021/01/14 07:43:22;;;;;;;1.00;0.40;;;14.30;66.70;;;;;;5010657;28;20125;-74
2021/01/14 07:46:11;;;;;;;0.45;0.40;;;14.30;66.70;;;;;;5009668;28;20034;-74
2021/01/14 07:48:48;;;;;;;0.25;0.25;;;14.30;66.70;;;;;;5011296;28;20047;-74
2021/01/14 07:51:20;;;;;;;0.30;0.30;;;14.30;66.70;;;;;;5010969;28;20034;-74
2021/01/14 07:54:08;;;;;;;0.52;0.45;;;14.30;66.70;;;;;;5008581;28;20181;-74
2021/01/14 07:56:51;;;;;;;1.33;0.50;;;14.30;66.60;;;;;;5024435;28;20088;-74
2021/01/14 07:59:30;;;;;;;1.63;0.50;;;14.30;66.60;;;;;;5011836;28;20366;-74
2021/01/14 08:02:08;;;;;;;0.75;0.35;;;14.20;66.60;;;;;;5010648;28;20033;-73
2021/01/14 08:04:48;;;;;;;0.73;0.52;;;14.20;66.60;;;;;;5013742;28;20025;-73
2021/01/14 08:07:26;;;;;;;0.50;0.50;;;14.30;66.70;;;;;;5010113;28;20094;-73
2021/01/14 08:09:52;;;;;;;;;;;14.30;66.60;;;;;;5009535;28;20028;-74
2021/01/14 08:12:29;;;;;;;0.95;0.47;;;14.20;66.60;;;;;;5028506;28;19905;-73
2021/01/14 08:14:59;;;;;;;0.65;0.47;;;14.20;66.60;;;;;;5008576;28;20041;-74
2021/01/14 08:17:26;;;;;;;0.60;0.28;;;14.30;66.60;;;;;;5014012;28;20391;-74
2021/01/14 08:19:54;;;;;;;1.63;0.38;;;14.30;66.60;;;;;;5022958;28;20021;-74
2021/01/14 08:22:20;;;;;;;0.50;0.50;;;14.20;66.60;;;;;;5010176;28;20032;-73
2021/01/14 08:24:56;;;;;;;0.43;0.38;;;14.30;66.60;;;;;;5023412;28;20030;-74
2021/01/14 08:27:24;;;;;;;0.32;0.30;;;14.20;66.60;;;;;;5013630;28;20026;-76
2021/01/14 08:29:56;;;;;;;;;;;14.30;66.60;;;;;;5011733;28;20524;-76
2021/01/14 08:32:36;;;;;;;0.70;0.30;;;14.30;66.60;;;;;;5006169;28;19905;-76
2021/01/14 08:35:16;;;;;;;0.22;0.20;;;14.30;66.50;;;;;;5029799;28;20037;-75
2021/01/14 08:37:54;;;;;;;0.88;0.40;;;14.30;66.50;;;;;;5005888;28;20771;-76
2021/01/14 08:40:23;;;;;;;0.45;0.40;;;14.30;66.50;;;;;;5033298;28;20034;-76
2021/01/14 08:42:58;;;;;;;0.50;0.35;;;14.30;66.50;;;;;;5009383;28;20030;-76
2021/01/14 08:45:27;;;;;;;0.63;0.30;;;14.30;66.50;;;;;;5022665;28;20045;-75
2021/01/14 08:47:58;;;;;;;0.32;0.25;;;14.30;66.50;;;;;;5013368;28;20045;-77
2021/01/14 08:50:48;;;;;;;0.50;0.40;;;14.30;66.40;;;;;;5024829;28;20053;-76
2021/01/14 08:53:34;;;;;;;0.50;0.50;;;14.30;66.40;;;;;;5031850;28;20022;-75
2021/01/14 08:56:07;;;;;;;1.25;0.30;;;14.30;66.50;;;;;;5025956;28;20025;-74
2021/01/14 08:58:44;;;;;;;0.88;0.30;;;14.30;66.50;;;;;;5015025;28;20064;-74
2021/01/14 09:01:25;;;;;;;0.30;0.20;;;14.30;66.50;;;;;;5008758;28;20029;-76
2021/01/14 09:03:58;;;;;;;1.17;0.57;;;14.30;66.50;;;;;;5031188;28;20029;-76
2021/01/14 09:06:32;;;;;;;0.50;0.32;;;14.30;66.50;;;;;;5007635;28;20497;-75
2021/01/14 09:08:59;;;;;;;0.82;0.40;;;14.30;66.50;;;;;;5022664;28;20045;-76
2021/01/14 09:11:26;;;;;;;0.82;0.50;;;14.30;66.40;;;;;;5012434;28;20033;-76
2021/01/14 09:14:04;;;;;;;0.30;0.30;;;14.30;66.50;;;;;;5010405;28;20048;-76
2021/01/14 09:16:29;;;;;;;0.28;0.28;;;14.30;66.40;;;;;;5005289;28;20030;-76
2021/01/14 09:18:55;;;;;;;0.30;0.25;;;14.30;66.50;;;;;;5029915;28;20722;-76
2021/01/14 09:21:21;;;;;;;0.50;0.35;;;14.30;66.50;;;;;;5028504;28;20111;-76
2021/01/14 09:23:47;;;;;;;0.40;0.40;;;14.30;66.50;;;;;;5011891;28;20025;-76
2021/01/14 09:26:20;;;;;;;0.43;0.30;;;14.20;66.50;;;;;;5028643;28;20029;-76
2021/01/14 09:28:52;;;;;;;0.30;0.30;;;14.30;66.50;;;;;;5007664;28;20025;-76
2021/01/14 09:31:22;;;;;;;0.22;0.20;;;14.30;66.50;;;;;;5012670;28;20104;-75
2021/01/14 09:33:52;;;;;;;0.40;0.40;;;14.30;66.40;;;;;;5012762;28;20108;-74
2021/01/14 09:36:22;;;;;;;0.57;0.50;;;14.30;66.50;;;;;;5025443;28;20033;-74
2021/01/14 09:38:56;;;;;;;0.40;0.30;;;14.30;66.40;;;;;;5011124;28;20033;-76
2021/01/14 09:41:35;;;;;;;0.70;0.50;;;14.30;66.40;;;;;;5027035;28;20113;-75
2021/01/14 09:44:15;;;;;;;0.43;0.35;;;14.30;66.40;;;;;;5011797;28;20022;-75
2021/01/14 09:46:46;;;;;;;0.38;0.38;;;14.30;66.40;;;;;;5026075;28;20482;-76
2021/01/14 09:49:18;;;;;;;0.80;0.45;;;14.30;66.40;;;;;;5013970;28;20021;-76
2021/01/14 09:51:50;;;;;;;0.30;0.30;;;14.30;66.40;;;;;;5008415;28;20028;-76
2021/01/14 09:54:17;;;;;;;0.77;0.30;;;14.30;66.40;;;;;;5021987;28;20477;-76
2021/01/14 09:57:11;;;;;;;1.70;0.90;;;14.30;66.40;;;;;;5014905;28;20108;-76
2021/01/14 09:59:42;;;;;;;0.75;0.40;;;14.20;66.50;;;;;;5028461;28;20029;-76
2021/01/14 10:02:17;;;;;;;0.50;0.38;;;14.30;66.50;;;;;;5011248;28;20597;-75
2021/01/14 10:04:55;;;;;;;0.35;0.32;;;14.30;66.40;;;;;;5011578;28;20021;-79
2021/01/14 10:07:35;;;;;;;0.60;0.50;;;14.30;66.40;;;;;;5009219;28;20072;-77
2021/01/14 10:10:04;;;;;;;0.95;0.63;;;14.30;66.40;;;;;;5011458;28;20026;-76
2021/01/14 10:12:33;;;;;;;0.70;0.52;;;14.30;66.40;;;;;;5023628;28;20378;-75
2021/01/14 10:15:12;;;;;;;;;;;14.30;66.40;;;;;;5012396;28;20025;-76
2021/01/14 10:17:41;;;;;;;0.50;0.40;;;14.30;66.40;;;;;;5029741;28;19916;-76
2021/01/14 10:20:14;;;;;;;0.93;0.40;;;14.30;66.40;;;;;;5026234;28;20052;-76
2021/01/14 10:22:53;;;;;;;0.28;0.28;;;14.30;66.40;;;;;;5013122;28;20104;-76
2021/01/14 10:25:20;;;;;;;0.52;0.50;;;14.30;66.50;;;;;;5006759;28;20025;-76
2021/01/14 10:28:10;;;;;;;0.65;0.60;;;14.30;66.50;;;;;;5028020;28;20021;-76
2021/01/14 10:30:42;;;;;;;0.65;0.30;;;14.30;66.50;;;;;;5007458;28;20370;-76
2021/01/14 10:33:09;;;;;;;0.65;0.30;;;14.20;66.40;;;;;;5008044;28;20021;-75
2021/01/14 10:35:36;;;;;;;1.55;0.47;;;14.30;66.00;;;;;;5007434;28;20071;-77
2021/01/14 10:38:16;;;;;;;0.65;0.50;;;14.30;66.30;;;;;;5025420;28;20045;-76
2021/01/14 10:40:51;;;;;;;9.18;0.73;;;14.30;65.60;;;;;;5026644;28;20032;-75
2021/01/14 10:43:29;;;;;;;1.55;1.08;;;14.40;65.40;;;;;;5026366;28;20048;-75
2021/01/14 10:45:54;;;;;;;1.27;0.45;;;14.40;65.90;;;;;;5022991;28;20522;-75
2021/01/14 10:48:37;;;;;;;1.02;0.70;;;14.50;66.70;;;;;;5027142;28;20129;-76
2021/01/14 10:51:08;;;;;;;1.33;0.45;;;14.60;67.10;;;;;;5025565;28;20060;-75
2021/01/14 10:53:40;;;;;;;1.58;0.40;;;14.60;69.40;;;;;;5010025;28;20030;-74
2021/01/14 10:56:11;;;;;;;2.47;0.73;;;14.60;71.20;;;;;;5012112;28;20394;-74
2021/01/14 10:58:40;;;;;;;4.75;0.45;;;14.60;75.00;;;;;;5009323;28;20132;-77
2021/01/14 11:01:29;;;;;;;5.18;0.90;;;14.70;73.90;;;;;;5027566;28;20053;-75
2021/01/14 11:04:04;;;;;;;4.15;0.98;;;14.70;75.30;;;;;;5009605;28;20187;-76
2021/01/14 11:06:37;;;;;;;5.60;0.88;;;14.70;78.30;;;;;;5028483;28;20511;-75
2021/01/14 11:09:07;;;;;;;6.10;1.10;;;14.70;78.30;;;;;;5009397;28;20182;-76
2021/01/14 11:11:34;;;;;;;1.98;1.00;;;14.80;80.90;;;;;;5011588;28;20033;-75
2021/01/14 11:14:00;;;;;;;3.30;1.23;;;14.80;81.20;;;;;;5010634;28;20033;-76
2021/01/14 11:16:38;;;;;;;5.22;0.95;;;14.80;81.30;;;;;;5009841;28;20044;-76
2021/01/14 11:19:06;;;;;;;6.63;2.03;;;14.80;81.70;;;;;;5020848;28;20461;-75
2021/01/14 11:21:37;;;;;;;4.15;1.35;;;14.80;83.80;;;;;;5008281;28;20033;-76
2021/01/14 11:24:03;;;;;;;3.17;0.95;;;14.80;81.70;;;;;;5007283;28;20489;-77
2021/01/14 11:26:30;;;;;;;4.47;1.42;;;14.80;81.90;;;;;;5023779;28;20488;-74
2021/01/14 11:28:56;;;;;;;2.42;1.05;;;14.80;80.20;;;;;;5011407;28;20124;-74
2021/01/14 11:31:24;;;;;;;3.25;0.93;;;14.80;77.80;;;;;;5031043;28;20032;-75
2021/01/14 11:33:50;;;;;;;2.40;0.68;;;14.80;75.90;;;;;;5008944;28;20026;-75
2021/01/14 11:36:20;;;;;;;1.65;0.70;;;14.70;74.60;;;;;;5023992;28;20041;-76
2021/01/14 11:38:46;;;;;;;3.95;0.80;;;14.70;73.70;;;;;;5009192;28;20028;-75
2021/01/14 11:41:19;;;;;;;1.63;0.70;;;14.60;73.50;;;;;;5023640;28;20026;-76
2021/01/14 11:43:49;;;;;;;2.20;0.90;;;14.60;72.50;;;;;;5001618;28;20033;-76
2021/01/14 11:46:24;;;;;;;2.25;1.00;;;14.60;72.40;;;;;;5028296;28;20026;-76
2021/01/14 11:48:51;;;;;;;2.63;0.90;;;14.60;71.90;;;;;;5006613;28;20092;-75
2021/01/14 11:51:16;;;;;;;1.38;0.60;;;14.60;71.80;;;;;;5025842;28;20032;-76
2021/01/14 11:53:47;;;;;;;2.65;0.57;;;14.50;71.40;;;;;;5015053;28;20029;-76
2021/01/14 11:56:15;;;;;;;2.83;0.80;;;14.60;70.80;;;;;;5015822;28;20071;-76
2021/01/14 11:58:41;;;;;;;4.43;0.90;;;14.50;70.70;;;;;;5028523;28;20506;-76
2021/01/14 12:01:11;;;;;;;2.42;0.80;;;14.50;70.40;;;;;;5028507;28;20049;-77
2021/01/14 12:03:50;;;;;;;2.17;0.70;;;14.50;70.00;;;;;;5030306;28;20021;-76
2021/01/14 12:06:16;;;;;;;3.78;0.60;;;14.50;69.90;;;;;;5036214;28;20037;-77
2021/01/14 12:08:41;;;;;;;1.05;0.65;;;14.50;69.60;;;;;;5032939;28;20060;-76
2021/01/14 12:11:12;;;;;;;3.20;0.70;;;14.40;69.40;;;;;;5014146;28;20450;-77
2021/01/14 12:13:37;;;;;;;1.55;1.00;;;14.50;69.40;;;;;;5010557;28;20037;-76
2021/01/14 12:16:03;;;;;;;1.35;0.82;;;14.50;69.10;;;;;;5033144;28;20041;-77
2021/01/14 12:18:29;;;;;;;1.02;0.50;;;14.50;68.90;;;;;;5013957;28;20390;-76
2021/01/14 12:20:59;;;;;;;1.35;0.60;;;14.50;68.70;;;;;;5008014;28;20467;-77
2021/01/14 12:23:29;;;;;;;4.13;0.70;;;14.40;68.70;;;;;;5013131;28;20037;-76
2021/01/14 12:25:55;;;;;;;3.08;0.77;;;14.40;68.60;;;;;;5032351;28;20053;-76
2021/01/14 12:28:20;;;;;;;1.25;0.63;;;14.50;68.40;;;;;;5030972;28;20034;-76
2021/01/14 12:30:46;;;;;;;2.20;0.60;;;14.40;68.10;;;;;;5035581;28;20026;-76
2021/01/14 12:33:16;;;;;;;2.20;0.70;;;14.40;68.20;;;;;;5015928;28;20026;-76
2021/01/14 12:35:46;;;;;;;0.95;0.50;;;14.40;68.00;;;;;;5007082;28;20056;-76
2021/01/14 12:38:12;;;;;;;1.60;0.70;;;14.50;68.00;;;;;;5034198;28;20022;-78
2021/01/14 12:40:43;;;;;;;1.08;0.70;;;14.50;67.80;;;;;;5031987;28;20054;-76
2021/01/14 12:43:08;;;;;;;1.35;0.70;;;14.50;67.70;;;;;;5029585;28;20095;-76
2021/01/14 12:45:34;;;;;;;0.65;0.50;;;14.40;67.60;;;;;;5015205;28;20462;-76
2021/01/14 12:48:00;;;;;;;1.58;0.70;;;14.40;67.50;;;;;;5027575;28;20132;-76
2021/01/14 12:50:25;;;;;;;1.80;0.98;;;14.40;67.30;;;;;;5030213;28;20064;-76
2021/01/14 12:52:54;;;;;;;4.50;0.80;;;14.40;67.30;;;;;;5026133;28;20029;-76
2021/01/14 12:55:20;;;;;;;;;;;14.40;67.30;;;;;;5025489;28;20057;-77
2021/01/14 12:57:50;;;;;;;1.23;0.52;;;14.50;67.20;;;;;;5023564;28;19935;-75
2021/01/14 13:00:16;;;;;;;1.38;0.95;;;14.40;67.00;;;;;;5027711;28;20021;-76
2021/01/14 13:02:41;;;;;;;3.88;0.77;;;14.40;66.90;;;;;;5031945;28;20308;-76
2021/01/14 13:05:08;;;;;;;1.17;0.50;;;14.40;66.80;;;;;;5024433;28;20045;-76
2021/01/14 13:07:37;;;;;;;0.77;0.43;;;14.40;66.70;;;;;;5006108;28;20030;-76
2021/01/14 13:10:06;;;;;;;1.25;0.60;;;14.40;66.70;;;;;;5026562;28;20029;-77
2021/01/14 13:12:36;;;;;;;3.83;0.68;;;14.40;66.60;;;;;;5008340;28;20025;-76
2021/01/14 13:15:03;;;;;;;0.73;0.65;;;14.40;66.60;;;;;;5009638;28;20041;-78